Plymouth Peak Pro Challenge -

Station: INVENTORY - T Race

Distance: 10 Miles    

Release: 13-Apr-2019 09:00

Weather Release:    Arrival:

Wind at Release:     Wind at Arrival:

Temp at Release: °    Temp at Arrival: °

Lofts: 72

Birds: 352

Clocked: 325

Good Luck to Everyone!
Drops Pos Breeder Pigeon Name Color Sex Ent Arrival Speed To Win Eligible AOCPed
1 Bill Kluge - TX 26336-AU19-ARPU MLY C 1 09:00:03.10 340645.161 00:00:00 Yes
2 Morningside Racing Loft - TX 1029-AU19-MSRL 17795 x 7043 BBPN H 1 09:00:03.30 320000.000 00:00:00 Yes
2 Racine - WI 1811-AU19-RAC BB H 1 09:00:03.30 320000.000 00:00:00 Yes
4 Wessel Family Lofts - CA 3019-AU19-ARC BB C 1 09:00:03.40 310588.235 00:00:00 Yes
4 Racine - WI 1813-AU19-RAC BB H 2 09:00:03.40 310588.235 00:00:00 Yes
6 Morningside Racing Loft - TX 1045-AU19-MSRL 3670 x 7144 BBPN C 2 09:00:16.60 63614.458 00:00:13 Yes
7 Spring Break Race - UT 20129-AU19-AA BB C 1 09:00:17.70 59661.017 00:00:15 Yes
8 De La O-Siino - CA 9033-AU19-COOK BB H 1 09:00:18.30 57704.918 00:00:15 Yes
9 Da-Dong - WI 1646-AU19-RAC BB H 1 09:00:23.70 44556.962 00:00:21 Yes
10 Columba Loft - GA 9210-AU19-LYNC BB C 1 09:00:27.80 37985.612 00:00:25 Yes
11 Drama Queen Loft - TX 0974-AU19-GCI BB H 1 09:00:29.30 36040.956 00:00:26 Yes
12 Duvall/Whiteley - UT 1046-AU19-UVI BB H 1 09:00:31.90 33103.448 00:00:29 Yes
13 R & S Loft Of Tx - TX 0010-AU19-RSL BB H 1 09:00:32.50 32492.308 00:00:29 Yes
14 Ed Kehl - UT 2004-AU19-WGS BBWF H 1 09:00:32.80 32195.122 00:00:30 Yes
15 Racine - WI 1805-AU19-RAC BB H 3 09:00:33.30 31711.712 00:00:30 Yes
16 Eastern Pearl Loft - VA 0556-AU19-EPL 🈚️量 556 BBWF C 1 09:00:33.80 31242.604 00:00:31 Yes
17 Gold Star Loft - CA 1615-AU19-STON BBSP C 1 09:00:36.70 28773.842 00:00:34 Yes
18 Lawrence Cummins - UT 0109-AU19-DWI BBWF H 1 09:00:38.50 27428.571 00:00:35 Yes
19 Genesis Syndicate Loft - AZ 0046-IF19-GENE LTBC H 1 09:00:39.00 27076.923 00:00:36 Yes
20 Morningside Racing Loft - TX 1030-AU19-MSRL 17795 x 7043 BBWF H 3 09:00:39.30 26870.229 00:00:36 Yes
21 Eastern Pearl Loft - VA 0553-AU19-EPL 🈚️量 553 BC H 2 09:00:40.30 26203.474 00:00:37 Yes
22 Kolvenbag & Son - PA 1321-IF19-KOLV BC H 1 09:00:40.80 25882.353 00:00:38 Yes
23 Sam Haslem - UT 0026-AU19-SAM BCWF H 1 09:00:49.30 21419.878 00:00:46 Yes
24 Life Loft - WA 3021-AU19-CBF BCTC H 1 09:00:49.60 21290.323 00:00:46 Yes
25 P N W Challenge - ID 0514-AU19-IDA BB H 1 09:00:50.40 20952.381 00:00:47 Yes
26 Silicon Valley Syndicates - CA 19052-AU19-SVS BBSM H 1 09:00:51.50 20504.854 00:00:48 Yes
27 Gold Star Loft - CA 1620-AU19-STON BCSM H 2 09:00:52.50 20114.286 00:00:49 Yes
28 Rory Smith - UT 9203-AU19-CDR BC H 1 09:00:54.70 19305.302 00:00:52 Yes
29 Bill Kluge - TX 26324-AU19-ARPU BB H 2 09:00:57.10 18493.870 00:00:54 Yes
30 Baldwin & Tilson - NC 9037-AU19-TENT BBPN H 1 09:01:04.50 16372.093 00:01:01 Yes
31 Columba Loft - GA 9111-AU19-LYNC BC H 2 09:01:14.10 14251.012 00:01:11 Yes
32 Pyrate - MA 1805-AU19-FR BB C 1 09:01:15.40 14005.305 00:01:12 Yes
33 Kolvenbag & Son - PA 1340-IF19-KOLV BC C 2 09:01:16.50 13803.922 00:01:13 Yes
34 Genesis Syndicate Loft - AZ 0725-AU19-GENE BBWF H 2 09:01:19.90 13216.521 00:01:17 Yes
35 Kolvenbag & Son - PA 1337-IF19-KOLV BC H 3 09:01:23.40 12661.871 00:01:20 Yes
36 A P C Loft - TX 19038-AU19-APC BB H 1 09:01:23.70 12616.487 00:01:21 Yes
37 High West Loft - UT 0431-AU19-UVI BCWF H 1 09:01:28.30 11959.230 00:01:25 Yes
38 Genesis Syndicate Loft - AZ 0733-AU19-GENE BC H 3 09:01:31.90 11490.751 00:01:29 Yes
39 Alan Porter - WI 1008-AU19-RRR BB C 1 09:01:37.70 10808.598 00:01:35 Yes
40 Baldwin & Tilson - NC 9092-AU19-TENT BBWF H 2 09:01:39.10 10655.903 00:01:36 Yes
41 Brook Loft - NC 0615-IF19-CCF BBWF H 1 09:01:39.80 10581.162 00:01:37 Yes
42 De La O-Siino - CA 9023-AU19-COOK BB H 2 09:01:43.70 10183.221 00:01:41 Yes
43 Fassio Loft - UT 9121-AU19-SLI BLK C 1 09:01:44.90 10066.730 00:01:42 Yes
44 Racing Pigeon Digest - MT 1229-AU19-DIGE BB H 1 09:01:46.60 9906.191 00:01:44 Yes
45 J & M Partridge Loft - CA 1530-AU19-PASO BB H 1 09:01:51.40 9479.354 00:01:48 Yes
46 Racing Pigeon Mall - WA 0901-AU19-RPM BB H 1 09:01:56.60 9056.604 00:01:53 Yes
47 Columba Loft - GA 9271-AU19-LYNC BB C 3 09:01:57.60 8979.592 00:01:54 Yes
48 Baldwin & Tilson - NC 9094-AU19-TENT BBPN H 3 09:02:12.70 7957.800 00:02:10 Yes
49 Genesis Syndicate Loft - AZ 0753-AU19-GENE BC H 4 09:02:15.40 7799.114 00:02:12 Yes
50 Skylinerpl.Com - UT 0185-AU19-UVI BBWF C 1 09:02:47.40 6308.244 00:02:44 Yes
51 Lawrence Cummins - UT 0117-AU19-DWI LTBC H 2 09:02:53.80 6075.949 00:02:51 Yes
52 Da-Dong - WI 1659-AU19-RAC BC C 2 09:02:54.30 6058.520 00:02:51 Yes
53 Pyrate - MA 1801-AU19-FR BCWF H 2 09:02:56.50 5983.003 00:02:53 Yes
54 Duvall/Whiteley - UT 1357-AU19-WFA BCSM H 2 09:02:56.90 5969.474 00:02:54 Yes
55 Drama Queen Loft - TX 0965-AU19-GCI BB C 2 09:02:58.00 5932.584 00:02:55 Yes
56 Ken Christopher - UT 9223-AU19-GS BB C 1 09:03:04.60 5720.477 00:03:01 Yes
57 Duvall/Whiteley - UT 1035-AU19-UVI BB C 3 09:03:26.40 5116.279 00:03:23 Yes
58 Duvall/Whiteley - UT 1356-AU19-WFA BCSP H 4 09:03:33.00 4957.746 00:03:30 Yes
59 Fassio Loft - UT 9158-AU19-SLI BB H 2 09:03:40.20 4795.640 00:03:37 Yes
60 Wessel Family Lofts - CA 3006-AU19-ARC BB H 2 09:03:56.70 4461.343 00:03:54 Yes
61 Gold Star Loft - CA 1605-AU19-STON BCSM H 3 09:03:57.20 4451.939 00:03:54 Yes
62 Ken Christopher - UT 9212-AU19-GS CHOC H 2 09:04:06.20 4289.196 00:04:03 Yes
63 Da-Dong - WI 1643-AU19-RAC BBWF C 3 09:04:07.90 4259.782 00:04:05 Yes
64 Duvall/Whiteley - UT 1058-AU19-UVI BBWF H 5 09:04:16.40 4118.565 00:04:13 Yes
65 Racing Pigeon Digest - MT 1234-AU19-DIGE BC H 2 09:04:39.30 3780.881 00:04:36 Yes
66 Racing Pigeon Digest - MT 1233-AU19-DIGE BCWF H 3 09:04:44.60 3710.471 00:04:41 Yes
67 Baldwin & Tilson - NC 9030-AU19-TENT RRSP H 4 09:04:54.70 3583.305 00:04:52 Yes
68 Flying D Loft - TX 0245-AU19-FLYD BB H 1 09:05:29.00 3209.726 00:05:26 Yes
69 Kolvenbag & Son - PA 1342-IF19-KOLV DC C 4 09:05:30.30 3197.094 00:05:27 Yes
70 Flying D Loft - TX 0204-AU19-FLYD BC C 2 09:05:54.10 2982.208 00:05:51 Yes
71 Portland Loft - OR 0506-AU19-JEDD LTBC H 1 09:06:02.50 2913.103 00:05:59 Yes
72 Flying D Loft - TX 0226-AU19-FLYD BB C 3 09:06:06.50 2881.310 00:06:03 Yes
73 Milo’s Loft - OK 22901-AU19-ARPU BB H 1 09:06:07.60 2872.688 00:06:04 Yes
74 Wessel Family Lofts - CA 3013-AU19-ARC BB C 3 09:06:32.40 2691.131 00:06:29 Yes
75 Pyrate - MA 1813-AU19-FR BC H 3 09:06:45.10 2606.764 00:06:42 Yes
76 Drama Queen Loft - TX 0980-AU19-GCI LTBC C 3 09:06:55.00 2544.578 00:06:52 Yes
77 Duvall/Whiteley - UT 1354-AU19-WFA BBSP H 6 09:07:41.10 2290.176 00:07:38 Yes
78 Life Loft - WA 3023-AU19-CBF BC H 2 09:07:52.30 2235.867 00:07:49 Yes
79 Brown & Evans - TX 0257-AU19-WF BB H 1 09:07:57.00 2213.836 00:07:54 Yes
80 Morningside Racing Loft - TX 1007-AU19-MSRL 7077 x 963 BBWF C 4 09:08:11.70 2147.651 00:08:09 Yes
81 Skylinerpl.Com - UT 0222-AU19-UVI BBTC H 2 09:08:17.90 2120.908 00:08:15 Yes
82 M2 Loft - UT 0050-AU19-UVI BB H 1 09:08:30.30 2069.371 00:08:27 Yes
83 Bryan Maier - PA 0339-IF19-MAIE BB H 1 09:08:34.10 2054.075 00:08:31 Yes
84 J & M Partridge Loft - CA 1701-AU19-PASO BB H 2 09:08:41.40 2025.316 00:08:38 Yes
85 Drama Queen Loft - TX 0964-AU19-GCI BB H 4 09:09:01.30 1950.859 00:08:58 Yes
86 L S U - LA 0262-AU19-LSU BB C 1 09:09:09.70 1921.048 00:09:07 Yes
87 L S U - LA 0245-AU19-LSU GRIZ H 2 09:09:20.60 1883.696 00:09:18 Yes
88 Ed Kehl - UT 2005-AU19-WGS BBSP C 2 09:09:23.90 1872.672 00:09:21 Yes
89 Brook Loft - NC 0621-IF19-CCF BBPN H 2 09:09:45.90 1802.355 00:09:43 Yes
90 Sam Haslem - UT 0025-AU19-SAM BB H 2 09:09:54.10 1777.479 00:09:51 Yes
91 De La O-Siino - CA 9024-AU19-COOK BB C 3 09:10:04.60 1746.609 00:10:02 Yes
92 Fassio Loft - UT 9165-AU19-SLI BB H 3 09:10:07.40 1738.558 00:10:04 Yes
93 High West Loft - UT 0438-AU19-UVI BCSM C 2 09:10:08.50 1735.415 00:10:05 Yes
94 Racing Pigeon Mall - WA 0903-AU19-RPM DC H 2 09:10:11.70 1726.336 00:10:09 Yes
95 A P C Loft - TX 19108-AU19-APC BB H 2 09:10:21.90 1698.022 00:10:19 Yes
96 P N W Challenge - ID 0017-AU19-PNWC BB H 2 09:10:26.10 1686.632 00:10:23 Yes
97 Wessel Family Lofts - CA 3030-AU19-ARC BBSM H 4 09:10:45.80 1635.181 00:10:43 Yes
98 Spring Break Race - UT 20126-AU19-AA BBPD C 2 09:10:46.60 1633.158 00:10:44 Yes
99 De La O-Siino - CA 9019-AU19-COOK BB H 4 09:10:53.90 1614.926 00:10:51 Yes
100 Silicon Valley Syndicates - CA 19046-AU19-SVS BB C 2 09:11:02.50 1593.962 00:10:59 Yes

There are 386 bird records

Note: These Race Results are unofficial and subject to change until verified by the Race Committee and declared final.